Time;durP1;ratioP1;P1;durP2;ratioP2;P2;SDS_P1;SDS_P2;PMS_P1;PMS_P2;Temp;Humidity;BMP_temperature;BMP_pressure;BME280_temperature;BME280_humidity;BME280_pressure;Samples;Min_cycle;Max_cycle;Signal;HPM_P1;HPM_P2
2022/04/12 00:00:14;;;;;;;9.27;5.87;;;3.80;52.60;;;;;;5066981;28;46634;-63
2022/04/12 00:02:39;;;;;;;9.00;6.13;;;3.90;52.60;;;;;;5066517;28;46373;-62
2022/04/12 00:05:06;;;;;;;9.60;5.60;;;3.90;52.60;;;;;;5066335;28;46388;-63
2022/04/12 00:07:31;;;;;;;10.80;6.50;;;3.90;52.50;;;;;;5066394;28;46429;-64
2022/04/12 00:09:57;;;;;;;10.13;5.60;;;3.90;52.70;;;;;;5065890;28;46303;-63
2022/04/12 00:12:23;;;;;;;10.07;5.73;;;3.90;52.70;;;;;;5065023;28;47105;-63
2022/04/12 00:14:50;;;;;;;7.95;5.32;;;3.90;52.70;;;;;;5065568;28;46502;-62
2022/04/12 00:20:00;;;;;;;8.37;5.77;;;3.90;52.90;;;;;;5085698;28;46318;-64
2022/04/12 00:22:26;;;;;;;7.90;4.77;;;3.90;52.80;;;;;;5066093;28;46367;-63
2022/04/12 00:24:52;;;;;;;7.03;4.60;;;3.80;53.00;;;;;;5065532;28;46407;-62
2022/04/12 00:27:18;;;;;;;7.72;5.18;;;3.80;53.20;;;;;;5057169;28;46425;-62
2022/04/12 00:29:43;;;;;;;8.27;5.07;;;3.70;53.40;;;;;;5066026;28;46532;-63
2022/04/12 00:32:09;;;;;;;7.70;4.70;;;3.60;53.50;;;;;;5065622;28;47876;-62
2022/04/12 00:34:35;;;;;;;7.23;4.57;;;3.60;53.70;;;;;;5065951;28;45859;-63
2022/04/12 00:37:00;;;;;;;6.50;4.77;;;3.60;53.80;;;;;;5064724;28;46430;-64
2022/04/12 00:39:26;;;;;;;9.23;5.73;;;3.50;53.80;;;;;;5065425;28;46266;-63
2022/04/12 00:41:52;;;;;;;8.47;5.50;;;3.50;53.80;;;;;;5065667;28;48174;-63
2022/04/12 00:44:17;;;;;;;6.60;4.53;;;3.50;54.00;;;;;;5065663;28;45780;-62
2022/04/12 00:46:43;;;;;;;7.47;4.57;;;3.50;54.10;;;;;;5066107;28;46443;-63
2022/04/12 00:49:09;;;;;;;8.60;5.07;;;3.50;54.20;;;;;;5064220;28;46259;-63
2022/04/12 00:51:34;;;;;;;6.80;4.63;;;3.50;54.30;;;;;;5083968;28;47216;-63
2022/04/12 00:54:01;;;;;;;11.60;5.00;;;3.60;54.10;;;;;;5063386;28;46464;-61
2022/04/12 00:56:26;;;;;;;7.15;4.72;;;3.50;54.00;;;;;;5065135;28;46489;-64
2022/04/12 00:58:53;;;;;;;7.80;5.13;;;3.50;54.10;;;;;;5065691;28;46405;-62
2022/04/12 01:01:18;;;;;;;8.67;5.03;;;3.50;54.10;;;;;;5066119;28;48041;-62
2022/04/12 01:03:44;;;;;;;5.97;4.70;;;3.50;54.10;;;;;;5066678;28;46437;-64
2022/04/12 01:06:10;;;;;;;6.70;4.73;;;3.50;54.20;;;;;;5066571;28;46122;-64
2022/04/12 01:08:36;;;;;;;6.53;4.20;;;3.50;54.30;;;;;;5065598;28;45897;-63
2022/04/12 01:11:07;;;;;;;11.00;5.60;;;3.50;54.40;;;;;;5065287;28;48768;-62
2022/04/12 01:13:34;;;;;;;7.82;4.47;;;3.50;54.50;;;;;;5055617;28;46442;-61
2022/04/12 01:15:59;;;;;;;6.20;4.22;;;3.30;54.50;;;;;;5064951;28;46399;-63
2022/04/12 01:18:25;;;;;;;6.87;4.67;;;3.30;54.80;;;;;;5064742;28;46570;-61
2022/04/12 01:20:51;;;;;;;12.50;4.73;;;3.20;54.70;;;;;;5063608;28;47978;-64
2022/04/12 01:23:41;;;;;;;6.70;4.32;;;3.20;54.80;;;;;;5064977;28;46311;-62
2022/04/12 01:26:07;;;;;;;7.65;4.03;;;3.20;54.80;;;;;;5049279;28;46488;-64
2022/04/12 01:28:33;;;;;;;8.50;4.40;;;3.20;54.70;;;;;;5064678;28;46436;-61
2022/04/12 01:30:59;;;;;;;8.60;4.57;;;3.20;54.70;;;;;;5062371;28;49011;-63
2022/04/12 01:33:25;;;;;;;8.40;5.23;;;3.20;54.70;;;;;;5063990;28;46365;-63
2022/04/12 01:35:50;;;;;;;5.27;4.40;;;3.20;54.80;;;;;;5063657;28;46483;-64
2022/04/12 01:38:16;;;;;;;13.17;4.90;;;3.20;54.80;;;;;;5064675;28;46540;-62
2022/04/12 01:40:42;;;;;;;7.90;4.83;;;3.20;54.90;;;;;;5064089;28;48752;-64
2022/04/12 01:43:08;;;;;;;11.17;5.50;;;3.20;55.00;;;;;;5063994;28;45781;-64
2022/04/12 01:45:33;;;;;;;14.00;5.40;;;3.20;55.10;;;;;;5063896;28;46480;-63
2022/04/12 01:47:59;;;;;;;9.90;5.00;;;3.20;55.20;;;;;;5063639;28;46426;-62
2022/04/12 01:50:25;;;;;;;10.70;5.40;;;3.30;55.20;;;;;;5082576;28;46346;-63
2022/04/12 01:52:51;;;;;;;13.33;5.80;;;3.30;55.10;;;;;;5064293;28;46457;-66
2022/04/12 01:55:16;;;;;;;7.70;4.50;;;3.30;55.10;;;;;;5064058;28;46549;-63
2022/04/12 01:57:42;;;;;;;11.50;4.90;;;3.30;55.20;;;;;;5082586;28;45966;-64
2022/04/12 02:00:09;;;;;;;5.47;3.90;;;3.20;55.30;;;;;;5061076;28;47435;-64
2022/04/12 02:02:35;;;;;;;7.40;4.10;;;3.20;55.40;;;;;;5057524;28;46480;-61
2022/04/12 02:05:01;;;;;;;6.13;4.30;;;3.20;55.40;;;;;;5059602;28;46241;-64
2022/04/12 02:07:27;;;;;;;13.33;4.23;;;3.20;55.40;;;;;;5058485;28;46615;-64
2022/04/12 02:09:52;;;;;;;6.00;4.13;;;3.20;55.50;;;;;;5052480;28;48180;-64
2022/04/12 02:12:18;;;;;;;6.97;4.27;;;3.20;55.50;;;;;;5059803;28;45894;-61
2022/04/12 02:14:47;;;;;;;6.70;3.97;;;3.10;55.50;;;;;;5055942;28;46463;-62
2022/04/12 02:17:12;;;;;;;6.60;3.88;;;3.10;55.70;;;;;;5060664;28;46634;-63
2022/04/12 02:19:38;;;;;;;6.00;3.90;;;3.10;55.80;;;;;;5080710;28;46639;-64
2022/04/12 02:22:05;;;;;;;5.63;4.30;;;3.00;55.80;;;;;;5078657;28;46625;-64
2022/04/12 02:24:32;;;;;;;6.10;4.00;;;3.00;55.80;;;;;;5060914;28;46438;-62
2022/04/12 02:26:57;;;;;;;10.87;4.13;;;3.10;55.80;;;;;;5041869;28;46481;-62
2022/04/12 02:29:23;;;;;;;6.80;3.40;;;3.00;55.70;;;;;;5062189;28;48608;-62
2022/04/12 02:31:49;;;;;;;5.97;4.20;;;3.00;55.90;;;;;;5078258;27;46511;-63
2022/04/12 02:34:14;;;;;;;6.83;3.67;;;2.90;56.00;;;;;;5064074;28;46461;-62
2022/04/12 02:36:40;;;;;;;6.27;4.10;;;2.90;56.20;;;;;;5060506;28;46473;-63
2022/04/12 02:39:09;;;;;;;4.97;3.47;;;2.80;56.50;;;;;;5083700;28;46482;-64
2022/04/12 02:41:36;;;;;;;5.60;3.15;;;2.70;56.60;;;;;;5082956;28;46547;-63
2022/04/12 02:44:02;;;;;;;5.60;3.80;;;2.70;56.70;;;;;;5067247;28;46475;-62
2022/04/12 02:46:28;;;;;;;5.20;3.25;;;2.60;56.60;;;;;;5085212;28;45931;-63
2022/04/12 02:48:53;;;;;;;8.80;4.40;;;2.70;56.70;;;;;;5059629;28;47727;-64
2022/04/12 02:51:19;;;;;;;7.30;4.07;;;2.70;56.60;;;;;;5063718;28;46385;-64
2022/04/12 02:53:45;;;;;;;5.10;3.83;;;2.70;56.50;;;;;;5064760;28;46395;-63
2022/04/12 02:56:10;;;;;;;7.40;4.20;;;2.70;56.50;;;;;;5063451;28;46526;-63
2022/04/12 02:58:36;;;;;;;6.00;4.20;;;2.70;56.40;;;;;;5065156;28;47876;-64
2022/04/12 03:01:02;;;;;;;7.23;4.60;;;2.70;56.50;;;;;;5062962;28;46574;-64
2022/04/12 03:03:27;;;;;;;5.93;4.30;;;2.70;56.40;;;;;;5061591;28;46611;-64
2022/04/12 03:05:53;;;;;;;5.10;3.97;;;2.70;56.60;;;;;;5060755;28;46610;-64
2022/04/12 03:08:19;;;;;;;6.70;4.07;;;2.70;56.50;;;;;;5062641;28;48848;-64
2022/04/12 03:10:44;;;;;;;6.80;4.30;;;2.70;56.40;;;;;;5061221;28;46507;-64
2022/04/12 03:13:10;;;;;;;7.53;4.73;;;2.70;56.30;;;;;;5062977;28;46564;-63
2022/04/12 03:15:36;;;;;;;6.37;4.70;;;2.70;56.10;;;;;;5081388;28;46459;-64
2022/04/12 03:18:01;;;;;;;4.90;4.23;;;2.80;56.30;;;;;;5062012;28;48677;-64
2022/04/12 03:20:27;;;;;;;13.57;4.90;;;2.70;56.40;;;;;;5063433;28;46575;-63
2022/04/12 03:22:53;;;;;;;9.50;4.20;;;2.70;56.40;;;;;;5062233;28;46487;-64
2022/04/12 03:25:19;;;;;;;10.97;4.70;;;2.70;56.60;;;;;;5063980;28;46403;-64
2022/04/12 03:27:45;;;;;;;6.50;4.40;;;2.70;56.60;;;;;;5057396;28;46428;-62
2022/04/12 03:30:11;;;;;;;7.67;4.50;;;2.60;56.50;;;;;;5080972;28;46258;-64
2022/04/12 03:32:37;;;;;;;7.82;4.13;;;2.70;56.60;;;;;;5063149;28;46476;-64
2022/04/12 03:35:03;;;;;;;6.63;3.90;;;2.70;56.60;;;;;;5079775;28;46488;-64
2022/04/12 03:37:29;;;;;;;5.88;4.40;;;2.70;56.50;;;;;;5082922;28;47301;-63
2022/04/12 03:39:55;;;;;;;8.53;4.77;;;2.80;56.60;;;;;;5065074;28;46369;-64
2022/04/12 03:42:21;;;;;;;7.40;4.90;;;2.80;57.70;;;;;;5062369;28;46487;-64
2022/04/12 03:44:47;;;;;;;11.88;5.18;;;2.80;57.80;;;;;;5062744;28;46588;-64
2022/04/12 03:47:13;;;;;;;8.63;4.77;;;2.80;58.80;;;;;;5051695;28;46335;-64
2022/04/12 03:49:39;;;;;;;7.43;4.33;;;2.80;58.60;;;;;;5059689;28;46464;-64
2022/04/12 03:52:05;;;;;;;10.00;4.60;;;2.80;58.60;;;;;;5083881;28;46394;-64
2022/04/12 03:54:31;;;;;;;8.13;4.55;;;2.80;58.60;;;;;;5062876;28;46413;-65
2022/04/12 03:56:57;;;;;;;9.10;4.90;;;2.80;58.60;;;;;;5065205;28;48971;-63
2022/04/12 03:59:22;;;;;;;7.50;4.80;;;2.80;58.60;;;;;;5053864;28;46344;-64
2022/04/12 04:01:49;;;;;;;9.30;4.93;;;2.70;58.40;;;;;;5057412;28;46283;-64
2022/04/12 04:04:16;;;;;;;9.93;5.07;;;2.70;58.50;;;;;;5057754;28;46375;-64
2022/04/12 04:06:41;;;;;;;6.18;4.50;;;2.70;58.40;;;;;;5058686;28;47855;-64
2022/04/12 04:09:07;;;;;;;6.23;4.57;;;2.60;58.50;;;;;;5059434;28;46381;-64
2022/04/12 04:11:33;;;;;;;6.33;4.00;;;2.60;58.70;;;;;;5051611;28;46347;-62
2022/04/12 04:14:03;;;;;;;5.47;4.13;;;2.50;58.90;;;;;;5056382;28;46597;-63
2022/04/12 04:16:29;;;;;;;6.75;4.22;;;2.40;58.90;;;;;;5063135;28;48269;-62
2022/04/12 04:18:55;;;;;;;12.95;4.35;;;2.30;58.80;;;;;;5055519;27;46486;-63
2022/04/12 04:21:21;;;;;;;7.43;4.70;;;2.30;58.80;;;;;;5077934;28;46445;-63
2022/04/12 04:23:47;;;;;;;8.07;4.90;;;2.40;58.90;;;;;;5057106;28;46441;-63
2022/04/12 04:26:12;;;;;;;7.77;4.83;;;2.30;58.80;;;;;;5064739;28;46415;-64
2022/04/12 04:28:41;;;;;;;13.40;6.67;;;2.40;59.00;;;;;;5059639;28;46359;-64
2022/04/12 04:31:07;;;;;;;10.55;5.03;;;2.30;58.80;;;;;;5052169;28;46243;-63
2022/04/12 04:33:33;;;;;;;8.77;5.35;;;2.40;58.90;;;;;;5060239;28;46635;-64
2022/04/12 04:35:59;;;;;;;11.50;5.10;;;2.30;58.90;;;;;;5078983;28;46341;-63
2022/04/12 04:38:24;;;;;;;8.23;4.67;;;2.30;58.90;;;;;;5064085;28;46319;-63
2022/04/12 04:40:50;;;;;;;23.80;7.77;;;2.30;58.80;;;;;;5064474;28;46375;-64
2022/04/12 04:43:16;;;;;;;28.13;12.10;;;2.40;58.90;;;;;;5083142;28;46360;-62
2022/04/12 04:45:45;;;;;;;17.73;8.47;;;2.40;58.90;;;;;;5082628;28;46676;-62
2022/04/12 04:48:12;;;;;;;21.40;9.10;;;2.30;58.80;;;;;;5064920;28;46347;-62
2022/04/12 04:50:38;;;;;;;17.98;8.00;;;2.40;58.90;;;;;;5062679;28;46472;-63
2022/04/12 04:53:06;;;;;;;13.93;5.90;;;2.40;58.90;;;;;;5064942;28;46450;-64
2022/04/12 04:55:35;;;;;;;20.60;7.75;;;2.50;59.00;;;;;;5060930;28;48073;-64
2022/04/12 04:58:01;;;;;;;25.95;11.95;;;2.50;59.00;;;;;;5063517;28;46585;-64
2022/04/12 05:00:34;;;;;;;30.17;13.02;;;2.60;59.10;;;;;;5063775;28;45758;-64
2022/04/12 05:03:01;;;;;;;19.50;11.10;;;2.70;58.60;;;;;;5058933;28;47229;-64
2022/04/12 05:05:27;;;;;;;17.48;9.30;;;2.80;58.50;;;;;;5055995;28;47326;-63
2022/04/12 05:07:55;;;;;;;18.13;8.88;;;2.80;58.40;;;;;;5064262;28;46358;-65
2022/04/12 05:10:24;;;;;;;17.50;8.18;;;2.90;58.30;;;;;;5064374;28;46333;-64
2022/04/12 05:12:50;;;;;;;14.65;6.07;;;3.00;58.20;;;;;;5082387;28;46561;-64
2022/04/12 05:15:16;;;;;;;25.02;6.38;;;3.00;58.30;;;;;;5063984;28;48922;-64
2022/04/12 05:17:49;;;;;;;16.13;5.10;;;3.10;58.30;;;;;;5064469;28;45857;-62
2022/04/12 05:20:14;;;;;;;8.02;4.50;;;3.20;58.20;;;;;;5063915;28;45920;-63
2022/04/12 05:22:40;;;;;;;8.07;4.40;;;3.30;58.20;;;;;;5063714;28;46416;-63
2022/04/12 05:25:06;;;;;;;9.93;5.23;;;3.50;57.90;;;;;;5063899;28;48148;-63
2022/04/12 05:27:33;;;;;;;22.20;4.85;;;4.00;57.50;;;;;;5082360;28;46412;-64
2022/04/12 05:30:04;;;;;;;20.98;3.60;;;4.80;57.60;;;;;;5064162;28;46239;-62
2022/04/12 05:32:30;;;;;;;7.53;3.27;;;5.60;57.30;;;;;;5063750;28;46551;-63
2022/04/12 05:34:56;;;;;;;4.47;3.20;;;6.50;56.80;;;;;;5062404;28;46647;-63
2022/04/12 05:37:21;;;;;;;6.20;2.90;;;6.80;56.70;;;;;;5063596;28;46437;-62
2022/04/12 05:39:47;;;;;;;7.80;3.93;;;7.30;56.70;;;;;;5063679;28;46447;-64
2022/04/12 05:42:13;;;;;;;10.27;3.90;;;8.10;56.10;;;;;;5063936;28;46452;-64
2022/04/12 05:44:38;;;;;;;7.87;4.00;;;8.70;55.20;;;;;;5063174;28;48209;-63
2022/04/12 05:47:05;;;;;;;12.30;4.80;;;9.10;54.90;;;;;;5063965;28;46366;-63
2022/04/12 05:49:31;;;;;;;7.23;4.37;;;9.30;55.00;;;;;;5063474;28;46389;-64
2022/04/12 05:51:57;;;;;;;17.43;4.50;;;9.80;54.00;;;;;;5082532;28;46718;-64
2022/04/12 05:54:24;;;;;;;11.63;3.70;;;10.10;52.70;;;;;;5063521;28;46252;-64
2022/04/12 05:56:50;;;;;;;5.83;4.17;;;10.50;52.10;;;;;;5063259;28;46380;-64
2022/04/12 05:59:16;;;;;;;4.93;3.77;;;10.80;52.40;;;;;;5063138;28;46394;-63
2022/04/12 06:01:42;;;;;;;4.43;3.10;;;11.10;51.70;;;;;;5055118;28;46583;-64
2022/04/12 06:04:08;;;;;;;5.17;3.10;;;11.40;51.00;;;;;;5062976;28;48673;-64
2022/04/12 06:06:36;;;;;;;25.50;3.90;;;11.80;50.00;;;;;;5081910;27;45778;-64
2022/04/12 06:09:03;;;;;;;12.73;4.00;;;12.00;49.30;;;;;;5067505;28;46347;-63
2022/04/12 06:11:29;;;;;;;6.47;4.33;;;11.70;48.80;;;;;;5067240;28;46452;-64
2022/04/12 06:13:55;;;;;;;7.13;3.90;;;11.60;48.00;;;;;;5067545;28;48121;-64
2022/04/12 06:16:21;;;;;;;6.77;4.00;;;11.70;46.00;;;;;;5086396;28;46345;-63
2022/04/12 06:18:46;;;;;;;8.27;3.70;;;11.60;45.20;;;;;;5053152;28;46456;-64
2022/04/12 06:21:12;;;;;;;11.03;4.30;;;11.00;46.30;;;;;;5067444;28;46556;-64
2022/04/12 06:23:38;;;;;;;7.40;4.80;;;10.50;47.40;;;;;;5085252;28;46423;-63
2022/04/12 06:26:04;;;;;;;9.93;4.27;;;10.30;48.20;;;;;;5066881;28;46297;-63
2022/04/12 06:28:30;;;;;;;5.60;3.30;;;10.20;48.90;;;;;;5066724;28;46377;-64
2022/04/12 06:30:58;;;;;;;9.10;3.30;;;10.10;49.30;;;;;;5066810;28;46526;-63
2022/04/12 06:33:24;;;;;;;8.53;4.47;;;10.80;46.10;;;;;;5065697;28;47854;-63
2022/04/12 06:35:50;;;;;;;7.37;3.57;;;11.30;44.00;;;;;;5066498;28;46611;-64
2022/04/12 06:38:16;;;;;;;13.93;4.00;;;10.80;44.40;;;;;;5066954;28;46535;-64
2022/04/12 06:40:44;;;;;;;10.23;3.70;;;10.40;45.20;;;;;;5067039;28;46436;-64
2022/04/12 06:43:11;;;;;;;6.90;3.73;;;10.10;46.10;;;;;;5066235;28;47904;-63
2022/04/12 06:45:37;;;;;;;6.77;3.90;;;9.90;47.70;;;;;;5066316;28;46465;-64
2022/04/12 06:48:03;;;;;;;6.10;4.57;;;9.80;48.00;;;;;;5066202;28;46291;-64
2022/04/12 06:50:29;;;;;;;14.10;4.30;;;9.90;48.10;;;;;;5066603;28;46456;-64
2022/04/12 06:52:56;;;;;;;8.33;4.80;;;10.00;46.80;;;;;;5059873;28;48047;-64
2022/04/12 06:55:22;;;;;;;5.73;3.77;;;10.00;46.90;;;;;;5064526;28;46505;-64
2022/04/12 06:57:48;;;;;;;7.13;4.80;;;9.90;48.20;;;;;;5064089;28;46454;-64
2022/04/12 07:00:16;;;;;;;7.27;4.87;;;9.90;48.10;;;;;;5066599;28;46794;-64
2022/04/12 07:02:42;;;;;;;8.80;4.80;;;9.90;48.30;;;;;;5065893;28;47261;-64
2022/04/12 07:05:08;;;;;;;8.60;4.50;;;9.80;48.90;;;;;;5066242;28;46384;-64
2022/04/12 07:07:38;;;;;;;14.93;5.03;;;9.90;48.80;;;;;;5066375;28;46409;-64
2022/04/12 07:10:12;;;;;;;5.47;4.10;;;10.10;47.80;;;;;;5066360;28;46230;-64
2022/04/12 07:12:40;;;;;;;6.67;4.13;;;10.10;47.60;;;;;;5078075;28;46758;-64
2022/04/12 07:15:06;;;;;;;5.60;3.90;;;10.00;48.00;;;;;;5082170;28;46405;-64
2022/04/12 07:17:32;;;;;;;5.80;4.07;;;10.00;48.30;;;;;;5066209;28;46462;-64
2022/04/12 07:19:58;;;;;;;7.03;4.23;;;10.20;48.20;;;;;;5082743;28;46296;-64
2022/04/12 07:22:24;;;;;;;6.43;4.00;;;10.60;47.70;;;;;;5065780;28;48005;-65
2022/04/12 07:24:50;;;;;;;7.97;4.40;;;10.70;47.10;;;;;;5065535;28;46433;-65
2022/04/12 07:27:16;;;;;;;5.60;4.10;;;11.00;47.00;;;;;;5065755;28;46436;-64
2022/04/12 07:29:42;;;;;;;8.50;5.40;;;11.00;47.00;;;;;;5065655;28;46286;-64
2022/04/12 07:32:07;;;;;;;9.70;4.90;;;11.10;47.20;;;;;;5065885;28;46406;-63
2022/04/12 07:34:33;;;;;;;8.00;4.93;;;11.40;47.00;;;;;;5065648;28;46433;-64
2022/04/12 07:36:59;;;;;;;5.67;4.07;;;11.40;46.70;;;;;;5065647;28;46396;-64
2022/04/12 07:39:24;;;;;;;8.90;5.00;;;11.60;46.80;;;;;;5066936;28;46678;-64
2022/04/12 07:41:51;;;;;;;6.53;4.20;;;11.80;46.80;;;;;;5066312;28;48066;-65
2022/04/12 07:44:18;;;;;;;6.60;4.40;;;11.90;47.00;;;;;;5065871;28;46600;-62
2022/04/12 07:46:45;;;;;;;7.37;4.87;;;12.10;46.70;;;;;;5066129;28;46580;-64
2022/04/12 07:49:11;;;;;;;6.30;4.60;;;12.20;46.50;;;;;;5084011;28;46620;-64
2022/04/12 07:51:37;;;;;;;7.10;3.80;;;12.40;46.30;;;;;;5065613;28;48897;-64
2022/04/12 07:54:04;;;;;;;7.73;3.87;;;12.60;45.90;;;;;;5065012;28;46352;-64
2022/04/12 07:56:31;;;;;;;7.43;4.00;;;12.70;45.50;;;;;;5083980;28;46481;-64
2022/04/12 07:58:57;;;;;;;3.93;2.40;;;12.80;45.50;;;;;;5064058;28;46494;-64
2022/04/12 08:01:22;;;;;;;6.70;3.40;;;12.80;44.80;;;;;;5065234;28;48895;-65
2022/04/12 08:03:48;;;;;;;8.70;3.77;;;12.90;44.40;;;;;;5065030;28;46445;-63
2022/04/12 08:06:14;;;;;;;7.07;3.97;;;12.90;44.40;;;;;;5065251;28;45878;-64
2022/04/12 08:08:40;;;;;;;7.40;3.53;;;13.00;44.20;;;;;;5065218;28;46419;-64
2022/04/12 08:11:07;;;;;;;10.33;3.83;;;13.10;43.80;;;;;;5065126;28;48091;-64
2022/04/12 08:13:33;;;;;;;8.07;4.70;;;13.10;44.00;;;;;;5063659;28;46496;-64
2022/04/12 08:15:59;;;;;;;6.00;3.90;;;13.30;43.90;;;;;;5058256;28;46277;-64
2022/04/12 08:18:25;;;;;;;8.03;4.07;;;13.30;43.80;;;;;;5054663;28;46271;-64
2022/04/12 08:20:51;;;;;;;6.07;3.80;;;13.50;43.80;;;;;;5064908;28;48746;-64
2022/04/12 08:23:20;;;;;;;9.40;3.90;;;13.70;43.30;;;;;;5064669;28;46352;-64
2022/04/12 08:25:45;;;;;;;5.77;3.57;;;13.80;44.30;;;;;;5064463;28;46437;-65
2022/04/12 08:28:11;;;;;;;5.60;3.57;;;14.10;42.60;;;;;;5064816;28;46417;-65
2022/04/12 08:30:37;;;;;;;5.23;3.33;;;14.20;42.20;;;;;;5065393;28;46383;-64
2022/04/12 08:33:03;;;;;;;8.93;3.90;;;14.40;42.50;;;;;;5064103;28;46424;-64
2022/04/12 08:35:29;;;;;;;10.07;3.80;;;14.40;42.20;;;;;;5064986;28;46346;-64
2022/04/12 08:37:55;;;;;;;7.53;3.43;;;14.40;40.90;;;;;;5065239;28;46428;-63
2022/04/12 08:40:21;;;;;;;5.67;3.47;;;14.50;40.50;;;;;;5063955;28;47824;-64
2022/04/12 08:42:48;;;;;;;6.53;3.83;;;14.50;40.60;;;;;;5053486;28;46363;-64
2022/04/12 08:45:14;;;;;;;11.43;3.53;;;14.70;40.70;;;;;;5064693;28;46356;-64
2022/04/12 08:47:41;;;;;;;10.90;3.50;;;14.90;40.30;;;;;;5064994;28;46738;-64
2022/04/12 08:50:08;;;;;;;7.83;3.77;;;15.10;40.40;;;;;;5064519;28;48621;-63
2022/04/12 08:52:36;;;;;;;9.10;3.40;;;15.20;40.00;;;;;;5064371;28;45797;-65
2022/04/12 08:55:03;;;;;;;7.30;3.00;;;15.30;39.80;;;;;;5061934;28;46525;-65
2022/04/12 08:57:29;;;;;;;7.87;4.13;;;15.30;39.50;;;;;;5065208;28;46322;-64
2022/04/12 08:59:55;;;;;;;6.43;3.10;;;15.50;38.70;;;;;;5064331;28;46955;-63
2022/04/12 09:02:22;;;;;;;6.33;3.30;;;15.50;38.30;;;;;;5064621;28;46472;-64
2022/04/12 09:04:47;;;;;;;5.27;2.47;;;15.70;37.90;;;;;;5063755;28;46390;-64
2022/04/12 09:07:13;;;;;;;4.30;2.70;;;15.90;37.00;;;;;;5064723;28;46492;-64
2022/04/12 09:09:41;;;;;;;5.13;3.00;;;16.00;35.40;;;;;;5063448;28;47816;-63
2022/04/12 09:12:10;;;;;;;7.83;3.30;;;16.10;35.00;;;;;;5064554;28;46235;-64
2022/04/12 09:14:54;;;;;;;9.63;2.63;;;16.10;34.40;;;;;;5077623;28;46427;-64
2022/04/12 09:17:28;;;;;;;6.70;3.00;;;16.20;35.80;;;;;;5079310;28;46476;-64
2022/04/12 09:19:55;;;;;;;6.50;2.73;;;16.10;34.20;;;;;;5055169;28;48235;-63
2022/04/12 09:22:26;;;;;;;6.83;3.30;;;16.20;34.40;;;;;;5065216;28;46309;-64
2022/04/12 09:24:57;;;;;;;6.90;3.40;;;16.30;33.20;;;;;;5064887;28;46351;-64
2022/04/12 09:27:27;;;;;;;5.20;3.23;;;16.20;32.60;;;;;;5081566;28;46353;-64
2022/04/12 09:29:55;;;;;;;7.50;3.67;;;16.30;31.70;;;;;;5082134;28;47393;-63
2022/04/12 09:32:27;;;;;;;8.93;4.20;;;16.40;31.70;;;;;;5063984;28;46451;-64
2022/04/12 09:34:54;;;;;;;19.00;3.70;;;16.40;30.70;;;;;;5063645;28;46445;-64
2022/04/12 09:37:29;;;;;;;6.70;3.67;;;16.40;29.40;;;;;;5064298;28;45929;-63
2022/04/12 09:40:03;;;;;;;7.40;3.90;;;16.40;29.40;;;;;;5062604;28;47746;-64
2022/04/12 09:42:41;;;;;;;7.53;3.90;;;16.30;29.10;;;;;;5081646;28;45904;-64
2022/04/12 09:45:12;;;;;;;9.03;4.73;;;16.40;29.00;;;;;;5053659;28;46533;-64
2022/04/12 09:47:39;;;;;;;9.70;3.87;;;16.50;28.90;;;;;;5063824;28;46391;-64
2022/04/12 09:50:06;;;;;;;10.07;3.90;;;16.60;29.00;;;;;;5063506;28;48040;-63
2022/04/12 09:52:32;;;;;;;10.57;4.70;;;16.60;28.40;;;;;;5063382;28;46343;-64
2022/04/12 09:54:58;;;;;;;14.33;5.83;;;16.60;28.80;;;;;;5063527;28;46819;-64
2022/04/12 09:57:25;;;;;;;8.20;4.73;;;16.70;29.20;;;;;;5064054;28;46573;-63
2022/04/12 09:59:55;;;;;;;13.03;4.70;;;16.80;29.30;;;;;;5062319;28;46590;-63
2022/04/12 10:02:23;;;;;;;9.70;5.20;;;16.90;29.80;;;;;;5063461;28;46330;-64
2022/04/12 10:04:55;;;;;;;5.80;4.20;;;17.00;29.80;;;;;;5063378;28;46315;-64
2022/04/12 10:07:23;;;;;;;8.10;5.67;;;17.10;29.60;;;;;;5063062;28;46370;-64
2022/04/12 10:09:50;;;;;;;12.70;6.07;;;17.20;30.30;;;;;;5063336;28;48099;-64
2022/04/12 10:12:17;;;;;;;7.73;5.50;;;17.20;29.30;;;;;;5080892;28;46373;-64
2022/04/12 10:14:44;;;;;;;10.57;5.10;;;17.20;28.90;;;;;;5063308;28;45855;-64
2022/04/12 10:17:11;;;;;;;14.23;6.37;;;17.30;29.00;;;;;;5064312;28;46401;-64
2022/04/12 10:19:38;;;;;;;8.73;6.40;;;17.50;29.30;;;;;;5053484;28;48044;-63
2022/04/12 10:22:04;;;;;;;12.63;5.00;;;17.60;28.50;;;;;;5063759;28;46690;-64
2022/04/12 10:24:30;;;;;;;16.80;5.30;;;17.60;28.70;;;;;;5063448;28;46454;-64
2022/04/12 10:26:57;;;;;;;11.70;5.73;;;17.60;28.60;;;;;;5063294;28;46376;-64
2022/04/12 10:29:23;;;;;;;8.80;4.70;;;17.70;27.90;;;;;;5081690;28;46575;-63
2022/04/12 10:32:01;;;;;;;9.73;5.80;;;17.70;27.30;;;;;;5061487;28;46501;-63
2022/04/12 10:34:27;;;;;;;8.80;5.60;;;17.80;27.40;;;;;;5078742;28;46472;-64
2022/04/12 10:37:02;;;;;;;12.00;5.67;;;17.90;27.00;;;;;;5053560;28;46428;-64
2022/04/12 10:39:48;;;;;;;10.83;4.53;;;18.10;27.40;;;;;;5079842;28;48988;-64
2022/04/12 10:42:25;;;;;;;8.90;5.10;;;18.40;27.30;;;;;;5061774;28;46385;-64
2022/04/12 10:44:56;;;;;;;8.40;5.00;;;18.60;26.60;;;;;;5054496;28;46511;-64
2022/04/12 10:47:33;;;;;;;9.50;5.00;;;18.60;26.20;;;;;;5078895;28;46453;-64
2022/04/12 10:50:01;;;;;;;9.07;5.40;;;18.60;24.90;;;;;;5062703;28;48962;-64
2022/04/12 10:52:35;;;;;;;10.73;5.27;;;18.50;25.20;;;;;;5062498;27;46525;-64
2022/04/12 10:55:06;;;;;;;7.53;5.00;;;18.40;25.20;;;;;;5065473;28;46430;-64
2022/04/12 10:57:33;;;;;;;10.60;4.97;;;18.70;25.90;;;;;;5066847;28;46326;-63
2022/04/12 11:00:08;;;;;;;10.20;4.70;;;18.90;24.70;;;;;;5067039;28;46446;-64
2022/04/12 11:02:59;;;;;;;8.33;4.80;;;18.80;24.00;;;;;;5070885;28;46444;-63
2022/04/12 11:05:39;;;;;;;8.17;5.37;;;18.80;24.10;;;;;;5063679;28;46538;-62
2022/04/12 11:08:07;;;;;;;6.80;4.07;;;18.90;24.20;;;;;;5060347;28;45905;-64
2022/04/12 11:10:32;;;;;;;9.20;4.83;;;18.90;24.20;;;;;;5065795;28;46692;-64
2022/04/12 11:13:10;;;;;;;10.03;5.10;;;18.80;23.80;;;;;;5065770;28;46385;-65
2022/04/12 11:15:37;;;;;;;11.00;4.83;;;18.80;24.60;;;;;;5052408;28;46412;-65
2022/04/12 11:18:15;;;;;;;9.33;5.10;;;19.00;24.60;;;;;;5084983;28;46407;-64
2022/04/12 11:21:04;;;;;;;8.60;4.37;;;19.00;24.50;;;;;;5051697;28;46678;-63
2022/04/12 11:23:45;;;;;;;6.07;4.33;;;19.10;24.20;;;;;;5082091;28;46412;-63
2022/04/12 11:26:32;;;;;;;7.70;4.03;;;19.20;24.00;;;;;;5066011;28;46357;-63
2022/04/12 11:28:58;;;;;;;11.23;5.33;;;19.40;24.00;;;;;;5063450;28;46312;-63
2022/04/12 11:31:24;;;;;;;7.70;4.83;;;19.40;24.00;;;;;;5080077;28;48703;-63
2022/04/12 11:33:50;;;;;;;12.73;4.63;;;19.30;23.60;;;;;;5066007;28;46293;-64
2022/04/12 11:36:19;;;;;;;8.67;4.70;;;19.30;23.60;;;;;;5066140;28;46433;-63
2022/04/12 11:38:47;;;;;;;7.17;4.33;;;19.50;23.60;;;;;;5065930;28;46304;-63
2022/04/12 11:41:13;;;;;;;7.70;4.70;;;19.60;23.20;;;;;;5065739;28;48614;-64
2022/04/12 11:43:38;;;;;;;6.23;3.40;;;19.60;22.90;;;;;;5083882;28;46386;-64
2022/04/12 11:46:04;;;;;;;9.67;4.70;;;19.60;23.40;;;;;;5065321;28;46409;-62
2022/04/12 11:48:32;;;;;;;7.97;4.93;;;19.60;23.40;;;;;;5065536;28;46414;-62
2022/04/12 11:51:03;;;;;;;11.90;5.10;;;19.60;23.20;;;;;;5065314;28;46489;-63
2022/04/12 11:53:29;;;;;;;7.23;4.47;;;19.50;23.20;;;;;;5065360;28;46444;-64
2022/04/12 11:56:02;;;;;;;12.90;5.70;;;19.40;23.20;;;;;;5083995;28;46397;-63
2022/04/12 11:58:30;;;;;;;8.80;5.17;;;19.40;23.30;;;;;;5066319;28;46402;-63
2022/04/12 12:00:57;;;;;;;7.50;4.70;;;19.40;23.10;;;;;;5065181;28;48850;-64
2022/04/12 12:03:23;;;;;;;11.83;7.57;;;19.30;23.40;;;;;;5057699;28;46471;-62
2022/04/12 12:05:49;;;;;;;12.33;7.10;;;19.30;24.20;;;;;;5058911;28;46411;-63
2022/04/12 12:08:22;;;;;;;10.57;7.53;;;19.30;25.00;;;;;;5063996;28;46548;-65
2022/04/12 12:10:52;;;;;;;12.40;8.50;;;19.40;25.40;;;;;;5062197;28;48099;-64
2022/04/12 12:13:22;;;;;;;11.60;8.40;;;19.30;25.70;;;;;;5064349;28;46342;-63
2022/04/12 12:15:48;;;;;;;14.90;9.43;;;19.20;26.00;;;;;;5065456;28;46430;-63
2022/04/12 12:18:15;;;;;;;12.93;8.07;;;19.20;26.30;;;;;;5056160;28;46469;-65
2022/04/12 12:20:41;;;;;;;11.40;7.87;;;19.30;26.30;;;;;;5064894;28;47258;-63
2022/04/12 12:23:08;;;;;;;11.33;7.47;;;19.40;26.10;;;;;;5083318;28;46435;-64
2022/04/12 12:25:38;;;;;;;14.10;8.33;;;19.40;26.10;;;;;;5064608;28;46381;-64
2022/04/12 12:28:13;;;;;;;12.43;7.33;;;19.40;26.40;;;;;;5064008;28;46517;-63
2022/04/12 12:30:39;;;;;;;19.50;8.77;;;19.40;26.50;;;;;;5064718;28;47953;-63
2022/04/12 12:33:05;;;;;;;12.47;7.77;;;19.40;26.50;;;;;;5064813;28;46536;-63
2022/04/12 12:35:31;;;;;;;18.27;8.80;;;19.50;26.30;;;;;;5064572;28;46543;-63
2022/04/12 12:38:16;;;;;;;27.93;8.60;;;19.50;26.50;;;;;;5082625;28;46308;-63
2022/04/12 12:40:43;;;;;;;12.60;8.30;;;19.60;26.40;;;;;;5056574;28;47920;-63
2022/04/12 12:43:14;;;;;;;23.73;8.17;;;19.80;26.50;;;;;;5081314;28;46392;-64
2022/04/12 12:45:45;;;;;;;9.83;7.03;;;20.00;26.10;;;;;;5064858;28;46441;-63
2022/04/12 12:48:13;;;;;;;18.87;8.57;;;19.90;25.50;;;;;;5064536;28;46451;-63
2022/04/12 12:50:39;;;;;;;12.00;8.30;;;19.80;25.50;;;;;;5064620;28;46417;-64